sensor_id;sensor_type;location;lat;lon;timestamp;pressure;altitude;pressure_sealevel;temperature;humidity
77192;BME280;66172;48.526;8.078;2023-07-20T00:01:24;99463.59;;;20.61;50.52
77192;BME280;66172;48.526;8.078;2023-07-20T00:03:50;99460.06;;;20.57;50.47
77192;BME280;66172;48.526;8.078;2023-07-20T00:06:26;99466.41;;;20.54;49.83
77192;BME280;66172;48.526;8.078;2023-07-20T00:08:54;99460.50;;;20.52;50.07
77192;BME280;66172;48.526;8.078;2023-07-20T00:11:20;99465.63;;;20.53;50.74
77192;BME280;66172;48.526;8.078;2023-07-20T00:13:46;99459.72;;;20.51;50.28
77192;BME280;66172;48.526;8.078;2023-07-20T00:16:12;99462.88;;;20.50;50.51
77192;BME280;66172;48.526;8.078;2023-07-20T00:18:38;99472.31;;;20.52;50.08
77192;BME280;66172;48.526;8.078;2023-07-20T00:21:04;99468.00;;;20.51;50.53
77192;BME280;66172;48.526;8.078;2023-07-20T00:23:30;99469.53;;;20.56;49.79
77192;BME280;66172;48.526;8.078;2023-07-20T00:25:56;99464.22;;;20.17;53.83
77192;BME280;66172;48.526;8.078;2023-07-20T00:28:22;99469.88;;;19.85;55.15
77192;BME280;66172;48.526;8.078;2023-07-20T00:30:48;99483.38;;;19.48;56.11
77192;BME280;66172;48.526;8.078;2023-07-20T00:33:16;99482.59;;;19.43;56.30
77192;BME280;66172;48.526;8.078;2023-07-20T00:35:43;99468.44;;;19.41;56.12
77192;BME280;66172;48.526;8.078;2023-07-20T00:38:08;99473.91;;;19.34;55.92
77192;BME280;66172;48.526;8.078;2023-07-20T00:40:38;99473.94;;;19.17;56.54
77192;BME280;66172;48.526;8.078;2023-07-20T00:43:04;99473.16;;;19.16;56.60
77192;BME280;66172;48.526;8.078;2023-07-20T00:45:31;99467.22;;;19.21;56.43
77192;BME280;66172;48.526;8.078;2023-07-20T00:47:57;99463.69;;;19.24;55.85
77192;BME280;66172;48.526;8.078;2023-07-20T00:50:24;99471.56;;;19.47;55.15
77192;BME280;66172;48.526;8.078;2023-07-20T00:52:50;99466.03;;;19.51;55.26
77192;BME280;66172;48.526;8.078;2023-07-20T00:55:16;99459.75;;;19.18;56.85
77192;BME280;66172;48.526;8.078;2023-07-20T00:57:42;99458.94;;;19.14;56.98
77192;BME280;66172;48.526;8.078;2023-07-20T01:00:08;99464.88;;;18.95;57.68
77192;BME280;66172;48.526;8.078;2023-07-20T01:02:34;99463.28;;;18.73;57.88
77192;BME280;66172;48.526;8.078;2023-07-20T01:05:00;99468.00;;;18.69;58.37
77192;BME280;66172;48.526;8.078;2023-07-20T01:07:32;99463.28;;;18.59;58.48
77192;BME280;66172;48.526;8.078;2023-07-20T01:10:11;99475.06;;;18.52;58.69
77192;BME280;66172;48.526;8.078;2023-07-20T01:12:42;99461.25;;;18.38;58.96
77192;BME280;66172;48.526;8.078;2023-07-20T01:15:09;99465.53;;;18.25;59.46
77192;BME280;66172;48.526;8.078;2023-07-20T01:17:35;99464.38;;;18.29;59.30
77192;BME280;66172;48.526;8.078;2023-07-20T01:20:02;99454.94;;;18.37;59.29
77192;BME280;66172;48.526;8.078;2023-07-20T01:25:32;99460.38;;;18.09;59.88
77192;BME280;66172;48.526;8.078;2023-07-20T01:28:16;99458.81;;;18.08;59.89
77192;BME280;66172;48.526;8.078;2023-07-20T01:33:26;99460.00;;;18.18;59.50
77192;BME280;66172;48.526;8.078;2023-07-20T01:35:56;99458.06;;;18.22;59.69
77192;BME280;66172;48.526;8.078;2023-07-20T01:38:23;99461.59;;;18.22;59.70
77192;BME280;66172;48.526;8.078;2023-07-20T01:40:50;99457.25;;;18.18;60.08
77192;BME280;66172;48.526;8.078;2023-07-20T01:43:17;99447.03;;;18.11;60.82
77192;BME280;66172;48.526;8.078;2023-07-20T01:45:44;99445.41;;;18.00;61.63
77192;BME280;66172;48.526;8.078;2023-07-20T01:48:10;99459.09;;;17.82;62.14
77192;BME280;66172;48.526;8.078;2023-07-20T01:50:36;99447.41;;;18.17;60.46
77192;BME280;66172;48.526;8.078;2023-07-20T01:53:02;99445.88;;;18.30;60.07
77192;BME280;66172;48.526;8.078;2023-07-20T01:55:28;99445.00;;;17.98;62.00
77192;BME280;66172;48.526;8.078;2023-07-20T01:57:55;99458.28;;;17.78;62.88
77192;BME280;66172;48.526;8.078;2023-07-20T02:00:21;99447.31;;;17.85;62.70
77192;BME280;66172;48.526;8.078;2023-07-20T02:02:50;99452.44;;;17.86;62.73
77192;BME280;66172;48.526;8.078;2023-07-20T02:05:16;99454.34;;;17.75;62.92
77192;BME280;66172;48.526;8.078;2023-07-20T02:07:42;99466.91;;;17.69;62.67
77192;BME280;66172;48.526;8.078;2023-07-20T02:10:08;99460.56;;;17.62;62.86
77192;BME280;66172;48.526;8.078;2023-07-20T02:12:35;99461.72;;;17.57;63.41
77192;BME280;66172;48.526;8.078;2023-07-20T02:15:02;99457.06;;;17.68;62.87
77192;BME280;66172;48.526;8.078;2023-07-20T02:17:28;99458.28;;;17.81;62.38
77192;BME280;66172;48.526;8.078;2023-07-20T02:19:54;99461.00;;;17.74;62.83
77192;BME280;66172;48.526;8.078;2023-07-20T02:22:21;99464.50;;;17.68;63.21
77192;BME280;66172;48.526;8.078;2023-07-20T02:24:47;99462.94;;;17.67;63.24
77192;BME280;66172;48.526;8.078;2023-07-20T02:27:13;99464.09;;;17.59;63.76
77192;BME280;66172;48.526;8.078;2023-07-20T02:29:40;99457.38;;;17.56;63.74
77192;BME280;66172;48.526;8.078;2023-07-20T02:32:07;99459.69;;;17.51;64.38
77192;BME280;66172;48.526;8.078;2023-07-20T02:34:33;99458.50;;;17.52;64.58
77192;BME280;66172;48.526;8.078;2023-07-20T02:36:59;99455.38;;;17.53;64.53
77192;BME280;66172;48.526;8.078;2023-07-20T02:39:29;99453.78;;;17.45;64.94
77192;BME280;66172;48.526;8.078;2023-07-20T02:41:55;99452.19;;;17.47;64.59
77192;BME280;66172;48.526;8.078;2023-07-20T02:44:21;99454.09;;;17.36;64.89
77192;BME280;66172;48.526;8.078;2023-07-20T02:46:47;99458.75;;;17.29;65.34
77192;BME280;66172;48.526;8.078;2023-07-20T02:49:12;99456.03;;;17.32;65.46
77192;BME280;66172;48.526;8.078;2023-07-20T02:51:38;99463.84;;;17.23;65.89
77192;BME280;66172;48.526;8.078;2023-07-20T02:54:04;99461.81;;;17.17;66.43
77192;BME280;66172;48.526;8.078;2023-07-20T02:56:30;99467.31;;;17.17;66.60
77192;BME280;66172;48.526;8.078;2023-07-20T02:58:56;99467.34;;;17.20;66.11
77192;BME280;66172;48.526;8.078;2023-07-20T03:01:22;99462.19;;;17.15;66.57
77192;BME280;66172;48.526;8.078;2023-07-20T03:03:48;99464.94;;;17.15;66.54
77192;BME280;66172;48.526;8.078;2023-07-20T03:06:15;99461.41;;;17.15;66.21
77192;BME280;66172;48.526;8.078;2023-07-20T03:08:42;99455.53;;;17.16;66.50
77192;BME280;66172;48.526;8.078;2023-07-20T03:11:11;99458.25;;;17.13;66.04
77192;BME280;66172;48.526;8.078;2023-07-20T03:13:36;99456.44;;;17.31;65.61
77192;BME280;66172;48.526;8.078;2023-07-20T03:16:02;99450.22;;;17.41;65.37
77192;BME280;66172;48.526;8.078;2023-07-20T03:18:28;99459.38;;;17.63;64.50
77192;BME280;66172;48.526;8.078;2023-07-20T03:20:54;99457.91;;;17.79;63.84
77192;BME280;66172;48.526;8.078;2023-07-20T03:23:20;99456.38;;;17.89;63.43
77192;BME280;66172;48.526;8.078;2023-07-20T03:25:46;99458.78;;;18.01;62.67
77192;BME280;66172;48.526;8.078;2023-07-20T03:28:12;99466.59;;;17.92;63.10
77192;BME280;66172;48.526;8.078;2023-07-20T03:30:38;99468.16;;;17.89;63.11
77192;BME280;66172;48.526;8.078;2023-07-20T03:33:04;99463.41;;;17.79;63.24
77192;BME280;66172;48.526;8.078;2023-07-20T03:35:30;99469.38;;;17.99;62.72
77192;BME280;66172;48.526;8.078;2023-07-20T03:37:56;99471.75;;;18.04;62.67
77192;BME280;66172;48.526;8.078;2023-07-20T03:40:23;99481.50;;;17.87;63.37
77192;BME280;66172;48.526;8.078;2023-07-20T03:42:48;99475.28;;;17.98;63.11
77192;BME280;66172;48.526;8.078;2023-07-20T03:45:14;99485.44;;;17.83;63.47
77192;BME280;66172;48.526;8.078;2023-07-20T03:47:40;99485.44;;;17.86;63.46
77192;BME280;66172;48.526;8.078;2023-07-20T03:50:07;99483.13;;;17.95;63.15
77192;BME280;66172;48.526;8.078;2023-07-20T03:52:34;99473.72;;;18.04;62.83
77192;BME280;66172;48.526;8.078;2023-07-20T03:55:00;99472.53;;;18.01;63.00
77192;BME280;66172;48.526;8.078;2023-07-20T03:57:26;99465.81;;;17.98;62.78
77192;BME280;66172;48.526;8.078;2023-07-20T03:59:51;99475.66;;;17.96;62.58
77192;BME280;66172;48.526;8.078;2023-07-20T04:02:17;99477.13;;;17.76;62.68
77192;BME280;66172;48.526;8.078;2023-07-20T04:04:43;99481.03;;;17.71;62.79
77192;BME280;66172;48.526;8.078;2023-07-20T04:07:09;99475.16;;;17.73;62.70
77192;BME280;66172;48.526;8.078;2023-07-20T04:09:35;99476.09;;;17.36;63.79
77192;BME280;66172;48.526;8.078;2023-07-20T04:12:01;99475.81;;;17.52;63.34
77192;BME280;66172;48.526;8.078;2023-07-20T04:14:27;99475.81;;;17.52;63.55
77192;BME280;66172;48.526;8.078;2023-07-20T04:16:53;99478.13;;;17.46;64.04
77192;BME280;66172;48.526;8.078;2023-07-20T04:19:19;99485.09;;;17.33;64.84
77192;BME280;66172;48.526;8.078;2023-07-20T04:21:45;99480.63;;;17.11;65.93
77192;BME280;66172;48.526;8.078;2023-07-20T04:24:10;99483.00;;;17.13;66.19
77192;BME280;66172;48.526;8.078;2023-07-20T04:26:37;99484.13;;;17.08;66.38
77192;BME280;66172;48.526;8.078;2023-07-20T04:29:03;99488.44;;;17.06;66.79
77192;BME280;66172;48.526;8.078;2023-07-20T04:31:29;99484.47;;;17.03;66.83
77192;BME280;66172;48.526;8.078;2023-07-20T04:33:58;99486.06;;;17.04;66.79
77192;BME280;66172;48.526;8.078;2023-07-20T04:36:23;99491.19;;;17.06;66.95
77192;BME280;66172;48.526;8.078;2023-07-20T04:38:49;99487.97;;;17.00;67.10
77192;BME280;66172;48.526;8.078;2023-07-20T04:41:15;99492.41;;;17.12;66.90
77192;BME280;66172;48.526;8.078;2023-07-20T04:43:42;99487.22;;;17.03;66.90
77192;BME280;66172;48.526;8.078;2023-07-20T04:46:11;99498.31;;;17.17;66.73
77192;BME280;66172;48.526;8.078;2023-07-20T04:48:37;99490.94;;;17.28;66.14
77192;BME280;66172;48.526;8.078;2023-07-20T04:51:03;99496.06;;;17.30;66.31
77192;BME280;66172;48.526;8.078;2023-07-20T04:53:29;99501.94;;;17.28;66.48
77192;BME280;66172;48.526;8.078;2023-07-20T04:55:55;99504.63;;;17.21;66.45
77192;BME280;66172;48.526;8.078;2023-07-20T04:58:21;99502.31;;;17.23;66.90
77192;BME280;66172;48.526;8.078;2023-07-20T05:00:48;99501.03;;;17.14;67.36
77192;BME280;66172;48.526;8.078;2023-07-20T05:03:14;99507.38;;;17.21;67.09
77192;BME280;66172;48.526;8.078;2023-07-20T05:05:40;99502.44;;;17.41;66.26
77192;BME280;66172;48.526;8.078;2023-07-20T05:08:06;99507.13;;;17.37;65.70
77192;BME280;66172;48.526;8.078;2023-07-20T05:10:32;99512.69;;;17.47;65.37
77192;BME280;66172;48.526;8.078;2023-07-20T05:12:59;99519.84;;;17.59;64.86
77192;BME280;66172;48.526;8.078;2023-07-20T05:15:25;99503.38;;;17.66;64.86
77192;BME280;66172;48.526;8.078;2023-07-20T05:17:51;99501.50;;;17.81;64.16
77192;BME280;66172;48.526;8.078;2023-07-20T05:20:17;99500.00;;;17.87;63.26
77192;BME280;66172;48.526;8.078;2023-07-20T05:22:43;99501.16;;;17.86;63.56
77192;BME280;66172;48.526;8.078;2023-07-20T05:25:10;99501.19;;;17.89;63.02
77192;BME280;66172;48.526;8.078;2023-07-20T05:27:36;99493.34;;;17.98;63.35
77192;BME280;66172;48.526;8.078;2023-07-20T05:30:03;99509.94;;;18.16;62.48
77192;BME280;66172;48.526;8.078;2023-07-20T05:32:29;99508.41;;;18.22;62.13
77192;BME280;66172;48.526;8.078;2023-07-20T05:34:55;99503.75;;;18.47;61.49
77192;BME280;66172;48.526;8.078;2023-07-20T05:37:21;99499.50;;;18.61;60.98
77192;BME280;66172;48.526;8.078;2023-07-20T05:39:47;99497.94;;;18.77;60.85
77192;BME280;66172;48.526;8.078;2023-07-20T05:42:13;99508.16;;;18.77;60.72
77192;BME280;66172;48.526;8.078;2023-07-20T05:44:40;99497.97;;;18.95;59.42
77192;BME280;66172;48.526;8.078;2023-07-20T05:47:07;99501.50;;;18.99;59.76
77192;BME280;66172;48.526;8.078;2023-07-20T05:49:34;99496.38;;;18.90;59.45
77192;BME280;66172;48.526;8.078;2023-07-20T05:52:00;99495.56;;;18.93;60.00
77192;BME280;66172;48.526;8.078;2023-07-20T05:54:27;99498.34;;;19.08;59.17
77192;BME280;66172;48.526;8.078;2023-07-20T05:56:53;99500.72;;;19.02;59.21
77192;BME280;66172;48.526;8.078;2023-07-20T05:59:19;99495.59;;;19.18;58.74
77192;BME280;66172;48.526;8.078;2023-07-20T06:01:49;99503.06;;;19.00;59.03
77192;BME280;66172;48.526;8.078;2023-07-20T06:04:15;99498.72;;;19.38;58.01
77192;BME280;66172;48.526;8.078;2023-07-20T06:06:41;99494.34;;;19.76;57.13
77192;BME280;66172;48.526;8.078;2023-07-20T06:09:07;99491.91;;;19.92;56.35
77192;BME280;66172;48.526;8.078;2023-07-20T06:11:38;99496.06;;;20.46;54.96
77192;BME280;66172;48.526;8.078;2023-07-20T06:14:04;99498.03;;;20.42;54.84
77192;BME280;66172;48.526;8.078;2023-07-20T06:16:30;99500.53;;;20.84;54.08
77192;BME280;66172;48.526;8.078;2023-07-20T06:18:56;99498.66;;;20.71;54.17
77192;BME280;66172;48.526;8.078;2023-07-20T06:21:22;99500.41;;;21.02;53.55
77192;BME280;66172;48.526;8.078;2023-07-20T06:23:48;99501.47;;;21.22;52.75
77192;BME280;66172;48.526;8.078;2023-07-20T06:26:14;99497.25;;;21.85;51.10
77192;BME280;66172;48.526;8.078;2023-07-20T06:28:40;99500.53;;;22.45;49.59
77192;BME280;66172;48.526;8.078;2023-07-20T06:31:06;99496.28;;;22.94;48.19
77192;BME280;66172;48.526;8.078;2023-07-20T06:33:32;99495.97;;;23.34;46.94
77192;BME280;66172;48.526;8.078;2023-07-20T06:35:58;99504.50;;;23.70;45.17
77192;BME280;66172;48.526;8.078;2023-07-20T06:38:24;99500.31;;;24.21;43.13
77192;BME280;66172;48.526;8.078;2023-07-20T06:40:50;99493.03;;;24.47;42.62
77192;BME280;66172;48.526;8.078;2023-07-20T06:43:16;99508.69;;;25.09;41.94
77192;BME280;66172;48.526;8.078;2023-07-20T06:45:42;99505.63;;;25.52;40.71
77192;BME280;66172;48.526;8.078;2023-07-20T06:48:08;99510.16;;;25.91;39.95
77192;BME280;66172;48.526;8.078;2023-07-20T06:50:34;99516.00;;;26.09;39.71
77192;BME280;66172;48.526;8.078;2023-07-20T06:53:00;99515.28;;;26.21;38.39
77192;BME280;66172;48.526;8.078;2023-07-20T06:55:28;99509.28;;;26.36;38.22
77192;BME280;66172;48.526;8.078;2023-07-20T06:57:54;99510.44;;;26.38;38.95
77192;BME280;66172;48.526;8.078;2023-07-20T07:00:20;99513.59;;;26.53;38.62
77192;BME280;66172;48.526;8.078;2023-07-20T07:02:46;99517.16;;;26.78;37.90
77192;BME280;66172;48.526;8.078;2023-07-20T07:05:12;99512.94;;;27.12;37.84
77192;BME280;66172;48.526;8.078;2023-07-20T07:07:40;99507.84;;;27.57;37.31
77192;BME280;66172;48.526;8.078;2023-07-20T07:10:07;99509.75;;;27.82;36.79
77192;BME280;66172;48.526;8.078;2023-07-20T07:12:32;99513.56;;;28.32;35.89
77192;BME280;66172;48.526;8.078;2023-07-20T07:14:58;99509.28;;;29.19;34.71
77192;BME280;66172;48.526;8.078;2023-07-20T07:17:25;99507.25;;;29.87;32.59
77192;BME280;66172;48.526;8.078;2023-07-20T07:19:52;99514.84;;;30.14;32.65
77192;BME280;66172;48.526;8.078;2023-07-20T07:22:20;99507.47;;;30.35;32.07
77192;BME280;66172;48.526;8.078;2023-07-20T07:24:47;99516.44;;;31.08;30.96
77192;BME280;66172;48.526;8.078;2023-07-20T07:27:13;99508.41;;;32.25;29.51
77192;BME280;66172;48.526;8.078;2023-07-20T07:29:42;99504.63;;;32.57;27.98
77192;BME280;66172;48.526;8.078;2023-07-20T07:32:10;99501.66;;;33.10;27.65
77192;BME280;66172;48.526;8.078;2023-07-20T07:34:36;99510.88;;;34.38;26.01
77192;BME280;66172;48.526;8.078;2023-07-20T07:37:04;99504.44;;;36.01;24.37
77192;BME280;66172;48.526;8.078;2023-07-20T07:39:30;99509.69;;;36.92;23.31
77192;BME280;66172;48.526;8.078;2023-07-20T07:41:56;99508.38;;;37.15;23.10
77192;BME280;66172;48.526;8.078;2023-07-20T07:44:22;99502.41;;;37.98;21.80
77192;BME280;66172;48.526;8.078;2023-07-20T07:46:49;99505.00;;;37.91;22.14
77192;BME280;66172;48.526;8.078;2023-07-20T07:49:15;99500.28;;;37.53;22.60
77192;BME280;66172;48.526;8.078;2023-07-20T07:51:41;99505.31;;;37.82;21.75
77192;BME280;66172;48.526;8.078;2023-07-20T07:54:07;99502.00;;;37.72;21.82
77192;BME280;66172;48.526;8.078;2023-07-20T07:56:33;99510.91;;;37.35;22.13
77192;BME280;66172;48.526;8.078;2023-07-20T07:58:59;99511.25;;;37.04;22.41
77192;BME280;66172;48.526;8.078;2023-07-20T08:01:25;99506.59;;;37.01;22.38
77192;BME280;66172;48.526;8.078;2023-07-20T08:03:51;99503.22;;;36.52;23.11
77192;BME280;66172;48.526;8.078;2023-07-20T08:06:17;99501.91;;;36.15;23.56
77192;BME280;66172;48.526;8.078;2023-07-20T08:08:43;99507.13;;;36.83;21.82
77192;BME280;66172;48.526;8.078;2023-07-20T08:11:09;99507.34;;;36.35;22.38
77192;BME280;66172;48.526;8.078;2023-07-20T08:13:35;99499.66;;;36.74;21.72
77192;BME280;66172;48.526;8.078;2023-07-20T08:16:01;99494.94;;;37.21;21.18
77192;BME280;66172;48.526;8.078;2023-07-20T08:18:30;99493.94;;;37.19;20.97
77192;BME280;66172;48.526;8.078;2023-07-20T08:20:56;99490.63;;;37.03;22.15
77192;BME280;66172;48.526;8.078;2023-07-20T08:23:22;99499.63;;;37.08;22.24
77192;BME280;66172;48.526;8.078;2023-07-20T08:25:48;99509.06;;;37.43;21.52
77192;BME280;66172;48.526;8.078;2023-07-20T08:28:15;99500.56;;;37.49;21.34
77192;BME280;66172;48.526;8.078;2023-07-20T08:30:43;99505.72;;;37.50;20.60
77192;BME280;66172;48.526;8.078;2023-07-20T08:33:10;99505.06;;;36.94;21.75
77192;BME280;66172;48.526;8.078;2023-07-20T08:35:36;99495.03;;;36.77;22.26
77192;BME280;66172;48.526;8.078;2023-07-20T08:38:02;99486.78;;;36.62;22.58
77192;BME280;66172;48.526;8.078;2023-07-20T08:40:31;99493.97;;;36.52;22.54
77192;BME280;66172;48.526;8.078;2023-07-20T08:42:59;99494.78;;;36.69;21.49
77192;BME280;66172;48.526;8.078;2023-07-20T08:45:27;99489.34;;;36.60;21.90
77192;BME280;66172;48.526;8.078;2023-07-20T08:47:56;99496.25;;;36.15;22.40
77192;BME280;66172;48.526;8.078;2023-07-20T08:50:22;99506.38;;;36.66;22.01
77192;BME280;66172;48.526;8.078;2023-07-20T08:52:52;99496.25;;;37.09;21.20
77192;BME280;66172;48.526;8.078;2023-07-20T08:55:23;99503.75;;;36.45;21.27
77192;BME280;66172;48.526;8.078;2023-07-20T08:57:56;99490.84;;;37.00;21.91
77192;BME280;66172;48.526;8.078;2023-07-20T09:00:23;99502.16;;;37.28;20.94
77192;BME280;66172;48.526;8.078;2023-07-20T09:02:52;99490.34;;;36.96;20.92
77192;BME280;66172;48.526;8.078;2023-07-20T09:05:19;99491.16;;;36.58;21.97
77192;BME280;66172;48.526;8.078;2023-07-20T09:07:45;99495.53;;;36.31;22.39
77192;BME280;66172;48.526;8.078;2023-07-20T09:10:11;99491.69;;;36.62;21.92
77192;BME280;66172;48.526;8.078;2023-07-20T09:12:41;99496.97;;;37.26;21.22
77192;BME280;66172;48.526;8.078;2023-07-20T09:15:08;99483.53;;;37.43;20.47
77192;BME280;66172;48.526;8.078;2023-07-20T09:17:35;99480.81;;;37.79;20.25
77192;BME280;66172;48.526;8.078;2023-07-20T09:20:05;99478.34;;;37.47;20.39
77192;BME280;66172;48.526;8.078;2023-07-20T09:22:34;99488.22;;;37.87;20.25
77192;BME280;66172;48.526;8.078;2023-07-20T09:25:00;99483.03;;;37.91;20.31
77192;BME280;66172;48.526;8.078;2023-07-20T09:27:39;99479.44;;;37.96;20.22
77192;BME280;66172;48.526;8.078;2023-07-20T09:30:06;99468.44;;;38.17;19.65
77192;BME280;66172;48.526;8.078;2023-07-20T09:32:41;99472.47;;;37.86;20.09
77192;BME280;66172;48.526;8.078;2023-07-20T09:35:21;99469.63;;;37.34;20.01
77192;BME280;66172;48.526;8.078;2023-07-20T09:37:54;99471.28;;;36.46;21.15
77192;BME280;66172;48.526;8.078;2023-07-20T09:40:20;99466.56;;;35.93;22.67
77192;BME280;66172;48.526;8.078;2023-07-20T09:42:47;99464.34;;;35.38;22.90
77192;BME280;66172;48.526;8.078;2023-07-20T09:45:13;99464.78;;;33.54;25.03
77192;BME280;66172;48.526;8.078;2023-07-20T09:47:40;99465.41;;;32.69;26.16
77192;BME280;66172;48.526;8.078;2023-07-20T09:50:07;99466.41;;;31.68;27.17
77192;BME280;66172;48.526;8.078;2023-07-20T09:52:42;99462.09;;;31.11;28.29
77192;BME280;66172;48.526;8.078;2023-07-20T09:55:10;99453.56;;;32.21;26.93
77192;BME280;66172;48.526;8.078;2023-07-20T09:57:37;99449.69;;;33.57;24.83
77192;BME280;66172;48.526;8.078;2023-07-20T10:00:05;99449.69;;;34.03;24.24
77192;BME280;66172;48.526;8.078;2023-07-20T10:02:45;99445.78;;;33.49;24.06
77192;BME280;66172;48.526;8.078;2023-07-20T10:05:13;99448.19;;;33.01;24.15
77192;BME280;66172;48.526;8.078;2023-07-20T10:07:46;99434.97;;;32.73;24.50
77192;BME280;66172;48.526;8.078;2023-07-20T10:10:14;99436.25;;;33.67;23.57
77192;BME280;66172;48.526;8.078;2023-07-20T10:12:41;99437.28;;;34.47;22.47
77192;BME280;66172;48.526;8.078;2023-07-20T10:15:12;99428.44;;;35.07;22.12
77192;BME280;66172;48.526;8.078;2023-07-20T10:17:48;99426.91;;;35.71;20.72
77192;BME280;66172;48.526;8.078;2023-07-20T10:20:16;99435.78;;;34.88;21.52
77192;BME280;66172;48.526;8.078;2023-07-20T10:22:47;99424.34;;;35.68;21.00
77192;BME280;66172;48.526;8.078;2023-07-20T10:25:16;99425.19;;;36.68;20.92
77192;BME280;66172;48.526;8.078;2023-07-20T10:27:43;99413.34;;;36.36;20.62
77192;BME280;66172;48.526;8.078;2023-07-20T10:30:09;99415.16;;;36.62;20.59
77192;BME280;66172;48.526;8.078;2023-07-20T10:32:35;99420.53;;;34.75;21.91
77192;BME280;66172;48.526;8.078;2023-07-20T10:35:01;99419.00;;;34.42;22.16
77192;BME280;66172;48.526;8.078;2023-07-20T10:37:48;99415.31;;;34.31;23.34
77192;BME280;66172;48.526;8.078;2023-07-20T10:40:31;99422.81;;;34.71;22.73
77192;BME280;66172;48.526;8.078;2023-07-20T10:42:58;99423.47;;;35.39;21.42
77192;BME280;66172;48.526;8.078;2023-07-20T10:45:41;99412.84;;;34.44;22.92
77192;BME280;66172;48.526;8.078;2023-07-20T10:48:33;99421.50;;;32.97;24.63
77192;BME280;66172;48.526;8.078;2023-07-20T10:51:13;99418.97;;;32.64;24.87
77192;BME280;66172;48.526;8.078;2023-07-20T10:53:40;99420.34;;;31.95;25.82
77192;BME280;66172;48.526;8.078;2023-07-20T10:56:12;99415.38;;;30.99;26.98
77192;BME280;66172;48.526;8.078;2023-07-20T10:58:40;99414.81;;;31.33;26.86
77192;BME280;66172;48.526;8.078;2023-07-20T11:01:06;99408.72;;;31.73;26.97
77192;BME280;66172;48.526;8.078;2023-07-20T11:03:34;99411.66;;;31.16;26.87
77192;BME280;66172;48.526;8.078;2023-07-20T11:08:55;99401.34;;;33.44;24.03
77192;BME280;66172;48.526;8.078;2023-07-20T11:11:27;99402.97;;;34.28;22.75
77192;BME280;66172;48.526;8.078;2023-07-20T11:14:39;99400.78;;;35.28;21.78
77192;BME280;66172;48.526;8.078;2023-07-20T11:16:41;99396.00;;;34.60;21.97
77192;BME280;66172;48.526;8.078;2023-07-20T11:19:26;99389.75;;;34.88;22.71
77192;BME280;66172;48.526;8.078;2023-07-20T11:21:54;99390.69;;;36.20;21.00
77192;BME280;66172;48.526;8.078;2023-07-20T11:24:20;99391.06;;;37.07;19.54
77192;BME280;66172;48.526;8.078;2023-07-20T11:26:51;99383.97;;;36.50;19.16
77192;BME280;66172;48.526;8.078;2023-07-20T11:29:21;99378.56;;;36.25;19.82
77192;BME280;66172;48.526;8.078;2023-07-20T11:31:48;99375.69;;;35.69;21.14
77192;BME280;66172;48.526;8.078;2023-07-20T11:34:19;99372.81;;;35.58;21.40
77192;BME280;66172;48.526;8.078;2023-07-20T11:36:47;99373.91;;;34.59;22.46
77192;BME280;66172;48.526;8.078;2023-07-20T11:39:14;99371.28;;;34.92;21.78
77192;BME280;66172;48.526;8.078;2023-07-20T11:41:51;99375.69;;;34.99;22.38
77192;BME280;66172;48.526;8.078;2023-07-20T11:44:18;99358.56;;;33.72;23.13
77192;BME280;66172;48.526;8.078;2023-07-20T11:46:45;99366.47;;;34.19;23.88
77192;BME280;66172;48.526;8.078;2023-07-20T11:49:12;99354.59;;;34.94;22.48
77192;BME280;66172;48.526;8.078;2023-07-20T11:51:39;99354.72;;;35.17;22.33
77192;BME280;66172;48.526;8.078;2023-07-20T11:54:07;99360.97;;;35.48;22.18
77192;BME280;66172;48.526;8.078;2023-07-20T11:56:34;99356.94;;;35.99;21.74
77192;BME280;66172;48.526;8.078;2023-07-20T11:59:00;99349.31;;;35.13;21.79
77192;BME280;66172;48.526;8.078;2023-07-20T12:01:29;99350.47;;;35.60;22.25
77192;BME280;66172;48.526;8.078;2023-07-20T12:03:56;99349.63;;;35.32;22.23
77192;BME280;66172;48.526;8.078;2023-07-20T12:06:26;99334.78;;;35.76;21.26
77192;BME280;66172;48.526;8.078;2023-07-20T12:08:57;99340.69;;;34.85;22.11
77192;BME280;66172;48.526;8.078;2023-07-20T12:11:37;99342.00;;;34.90;21.77
77192;BME280;66172;48.526;8.078;2023-07-20T12:14:07;99327.47;;;35.19;21.22
77192;BME280;66172;48.526;8.078;2023-07-20T12:16:35;99340.84;;;34.65;22.76
77192;BME280;66172;48.526;8.078;2023-07-20T12:19:06;99323.78;;;34.96;21.88
77192;BME280;66172;48.526;8.078;2023-07-20T12:21:34;99332.03;;;35.05;20.82
77192;BME280;66172;48.526;8.078;2023-07-20T12:24:01;99325.22;;;34.75;20.80
77192;BME280;66172;48.526;8.078;2023-07-20T12:26:29;99316.91;;;33.87;21.91
77192;BME280;66172;48.526;8.078;2023-07-20T12:28:55;99311.94;;;32.64;23.20
77192;BME280;66172;48.526;8.078;2023-07-20T12:31:21;99308.91;;;33.28;23.13
77192;BME280;66172;48.526;8.078;2023-07-20T12:33:49;99309.66;;;33.29;24.09
77192;BME280;66172;48.526;8.078;2023-07-20T12:36:15;99305.94;;;32.77;23.57
77192;BME280;66172;48.526;8.078;2023-07-20T12:38:41;99308.34;;;32.84;24.43
77192;BME280;66172;48.526;8.078;2023-07-20T12:41:09;99295.50;;;33.03;24.17
77192;BME280;66172;48.526;8.078;2023-07-20T12:43:35;99289.88;;;33.23;24.85
77192;BME280;66172;48.526;8.078;2023-07-20T12:46:01;99289.81;;;32.97;25.20
77192;BME280;66172;48.526;8.078;2023-07-20T12:48:27;99299.22;;;32.69;25.57
77192;BME280;66172;48.526;8.078;2023-07-20T12:50:53;99291.44;;;32.84;24.94
77192;BME280;66172;48.526;8.078;2023-07-20T12:53:19;99297.63;;;32.47;25.64
77192;BME280;66172;48.526;8.078;2023-07-20T12:55:44;99290.16;;;32.09;26.25
77192;BME280;66172;48.526;8.078;2023-07-20T12:58:11;99289.00;;;32.01;25.55
77192;BME280;66172;48.526;8.078;2023-07-20T13:00:37;99294.81;;;31.98;25.74
77192;BME280;66172;48.526;8.078;2023-07-20T13:03:03;99283.44;;;32.42;24.46
77192;BME280;66172;48.526;8.078;2023-07-20T13:05:31;99287.06;;;32.07;25.04
77192;BME280;66172;48.526;8.078;2023-07-20T13:08:01;99272.69;;;32.40;23.53
77192;BME280;66172;48.526;8.078;2023-07-20T13:10:27;99279.38;;;32.43;25.04